Time;durP1;ratioP1;P1;durP2;ratioP2;P2;SDS_P1;SDS_P2;PMS_P1;PMS_P2;Temp;Humidity;BMP_temperature;BMP_pressure;BME280_temperature;BME280_humidity;BME280_pressure;Samples;Min_cycle;Max_cycle;Signal;HPM_P1;HPM_P2
2022/09/14 00:02:20;;;;;;;4.30;3.78;;;;;;;-142.91;100.00;56616.03;5011674;28;20211;-68
2022/09/14 00:04:47;;;;;;;7.57;4.35;;;;;;;-142.91;100.00;56616.03;5015712;28;20650;-68
2022/09/14 00:07:14;;;;;;;4.75;3.90;;;;;;;-142.91;100.00;56616.03;5000326;28;20219;-68
2022/09/14 00:09:42;;;;;;;3.97;3.65;;;;;;;-142.91;100.00;56616.03;4995833;28;20200;-71
2022/09/14 00:12:09;;;;;;;5.30;5.00;;;;;;;-142.91;100.00;56616.03;4996089;28;20269;-65
2022/09/14 00:14:38;;;;;;;5.05;3.75;;;;;;;-142.91;100.00;56616.03;4997246;28;20689;-66
2022/09/14 00:17:05;;;;;;;4.80;4.50;;;;;;;-142.91;100.00;56616.03;4994101;28;20211;-64
2022/09/14 00:19:31;;;;;;;4.15;3.85;;;;;;;-142.91;100.00;56616.03;4991275;28;20321;-66
2022/09/14 00:21:59;;;;;;;4.65;4.05;;;;;;;-142.91;100.00;56616.03;4993356;28;20235;-66
2022/09/14 00:24:28;;;;;;;4.88;4.47;;;;;;;-142.91;100.00;56616.03;4993802;28;20231;-67
2022/09/14 00:26:55;;;;;;;4.50;4.22;;;;;;;-142.91;100.00;56616.03;4996305;28;20291;-66
2022/09/14 00:29:22;;;;;;;7.20;4.13;;;;;;;-142.91;100.00;56616.03;4994863;28;20310;-66
2022/09/14 00:31:51;;;;;;;4.32;3.97;;;;;;;-142.91;100.00;56616.03;4992272;28;20215;-65
2022/09/14 00:34:19;;;;;;;4.78;4.35;;;;;;;-142.91;100.00;56616.03;4993688;28;20204;-67
2022/09/14 00:36:48;;;;;;;4.80;4.47;;;;;;;-142.91;100.00;56616.03;4992280;28;20211;-67
2022/09/14 00:39:17;;;;;;;3.67;3.47;;;;;;;-142.91;100.00;56616.03;4995874;28;20235;-66
2022/09/14 00:41:47;;;;;;;5.43;4.43;;;;;;;-142.91;100.00;56616.03;4992272;28;20803;-65
2022/09/14 00:44:51;;;;;;;5.15;4.75;;;;;;;-142.91;100.00;56616.03;4994720;28;20970;-67
2022/09/14 00:47:19;;;;;;;5.28;4.75;;;;;;;-142.91;100.00;56616.03;4996278;28;20202;-67
2022/09/14 00:49:46;;;;;;;6.03;5.10;;;;;;;-142.91;100.00;56616.03;4992946;28;20277;-67
2022/09/14 00:52:17;;;;;;;6.07;5.43;;;;;;;-142.91;100.00;56616.03;4992729;28;20203;-66
2022/09/14 00:54:47;;;;;;;7.18;5.22;;;;;;;-142.91;100.00;56616.03;4991989;28;20203;-67
2022/09/14 00:57:15;;;;;;;5.32;4.80;;;;;;;-142.91;100.00;56616.03;4992266;28;20662;-66
2022/09/14 00:59:43;;;;;;;9.48;4.93;;;;;;;-142.91;100.00;56616.03;4992774;28;20282;-66
2022/09/14 01:02:13;;;;;;;6.75;5.82;;;;;;;-142.91;100.00;56616.03;4992837;28;20204;-66
2022/09/14 01:04:42;;;;;;;6.22;5.00;;;;;;;-142.91;100.00;56616.03;4998127;28;20272;-64
2022/09/14 01:07:23;;;;;;;8.35;5.10;;;;;;;-142.91;100.00;56616.03;4991920;28;20232;-66
2022/09/14 01:10:01;;;;;;;8.32;5.40;;;;;;;-142.91;100.00;56616.03;4993877;28;20310;-66
2022/09/14 01:12:35;;;;;;;7.18;6.45;;;;;;;-142.91;100.00;56616.03;4992889;28;20211;-67
2022/09/14 01:15:08;;;;;;;5.03;4.63;;;;;;;-142.91;100.00;56616.03;4993945;28;20925;-66
2022/09/14 01:17:41;;;;;;;11.60;5.22;;;;;;;-142.91;100.00;56616.03;4992932;28;20917;-65
2022/09/14 01:20:20;;;;;;;7.15;5.50;;;;;;;-142.91;100.00;56616.03;4994529;28;22468;-65
2022/09/14 01:22:52;;;;;;;5.80;4.78;;;;;;;-142.91;100.00;56616.03;4992187;28;20211;-65
2022/09/14 01:25:37;;;;;;;6.30;5.18;;;;;;;-142.91;100.00;56616.03;4992645;28;20692;-66
2022/09/14 01:28:12;;;;;;;5.88;5.47;;;;;;;-142.91;100.00;56616.03;4995031;28;20694;-66
2022/09/14 01:30:42;;;;;;;6.03;5.03;;;;;;;-142.91;100.00;56616.03;4993217;28;20265;-67
2022/09/14 01:33:14;;;;;;;5.50;4.88;;;;;;;-142.91;100.00;56616.03;4996449;28;21571;-67
2022/09/14 01:35:47;;;;;;;5.50;5.00;;;;;;;-142.91;100.00;56616.03;4993359;28;20208;-66
2022/09/14 01:38:19;;;;;;;5.13;4.72;;;;;;;-142.91;100.00;56616.03;4993279;28;20270;-65
2022/09/14 01:40:48;;;;;;;6.93;4.80;;;;;;;-142.91;100.00;56616.03;4992891;28;20211;-66
2022/09/14 01:43:22;;;;;;;6.05;4.80;;;;;;;-142.91;100.00;56616.03;4993745;28;20262;-68
2022/09/14 01:45:51;;;;;;;5.20;4.80;;;;;;;-142.91;100.00;56616.03;4996452;28;20219;-65
2022/09/14 01:48:33;;;;;;;5.30;4.85;;;;;;;-142.91;100.00;56616.03;4993709;28;20203;-67
2022/09/14 01:51:02;;;;;;;6.00;4.90;;;;;;;-142.91;100.00;56616.03;4992919;28;20269;-67
2022/09/14 01:53:33;;;;;;;5.38;4.80;;;;;;;-142.91;100.00;56616.03;4992911;28;20224;-67
2022/09/14 01:56:05;;;;;;;4.75;4.35;;;;;;;-142.91;100.00;56616.03;4994681;28;20204;-67
2022/09/14 01:58:37;;;;;;;9.45;5.18;;;;;;;-142.91;100.00;56616.03;4994647;28;20207;-66
2022/09/14 02:01:07;;;;;;;5.13;4.82;;;;;;;-142.91;100.00;56616.03;4993484;28;20211;-66
2022/09/14 02:03:44;;;;;;;4.97;4.47;;;;;;;-142.91;100.00;56616.03;4994024;28;20261;-67
2022/09/14 02:06:17;;;;;;;6.88;5.22;;;;;;;-142.91;100.00;56616.03;4995749;28;21166;-66
2022/09/14 02:08:43;;;;;;;5.32;4.93;;;;;;;-142.91;100.00;56616.03;4991695;28;21055;-68
2022/09/14 02:11:10;;;;;;;4.93;4.50;;;;;;;-142.91;100.00;56616.03;4993654;28;20285;-67
2022/09/14 02:13:38;;;;;;;5.07;4.68;;;;;;;-142.91;100.00;56616.03;4996495;28;20208;-69
2022/09/14 02:16:05;;;;;;;6.32;4.95;;;;;;;-142.91;100.00;56616.03;4992401;28;20208;-67
2022/09/14 02:18:32;;;;;;;4.68;4.38;;;;;;;-142.91;100.00;56616.03;4994561;28;20297;-65
2022/09/14 02:21:04;;;;;;;5.43;4.93;;;;;;;-142.91;100.00;56616.03;4994181;28;20688;-66
2022/09/14 02:23:31;;;;;;;5.78;5.22;;;;;;;-142.91;100.00;56616.03;4992764;28;20245;-64
2022/09/14 02:25:58;;;;;;;4.85;4.25;;;;;;;-142.91;100.00;56616.03;4992523;28;20273;-66
2022/09/14 02:28:25;;;;;;;4.95;4.60;;;;;;;-142.91;100.00;56616.03;4993747;28;20211;-66
2022/09/14 02:31:06;;;;;;;7.32;5.03;;;;;;;-142.91;100.00;56616.03;4992868;28;20277;-67
2022/09/14 02:33:44;;;;;;;5.70;5.20;;;;;;;-142.91;100.00;56616.03;4992858;28;20285;-66
2022/09/14 02:36:17;;;;;;;5.50;5.10;;;;;;;-142.91;100.00;56616.03;4993649;28;20206;-66
2022/09/14 02:38:50;;;;;;;6.82;4.88;;;;;;;-142.91;100.00;56616.03;4995118;28;20234;-67
2022/09/14 02:41:23;;;;;;;5.07;4.78;;;;;;;-142.91;100.00;56616.03;4991919;28;20202;-68
2022/09/14 02:43:59;;;;;;;5.05;4.75;;;;;;;-142.91;100.00;56616.03;4993054;28;21667;-67
2022/09/14 02:46:36;;;;;;;5.32;4.80;;;;;;;-142.91;100.00;56616.03;4989637;28;20226;-67
2022/09/14 02:49:09;;;;;;;5.60;5.10;;;;;;;-142.91;100.00;56616.03;4992431;28;20313;-70
2022/09/14 02:51:42;;;;;;;5.97;5.47;;;;;;;-142.91;100.00;56616.03;4991498;28;20214;-68
2022/09/14 02:54:14;;;;;;;5.45;4.97;;;;;;;-142.91;100.00;56616.03;4991901;28;20203;-67
2022/09/14 02:56:41;;;;;;;11.98;5.07;;;;;;;-142.91;100.00;56616.03;4992488;28;20590;-66
2022/09/14 02:59:08;;;;;;;5.22;4.82;;;;;;;-142.91;100.00;56616.03;4993267;28;20231;-66
2022/09/14 03:01:36;;;;;;;6.57;5.88;;;;;;;-142.91;100.00;56616.03;4993138;28;21462;-67
2022/09/14 03:04:03;;;;;;;6.15;5.28;;;;;;;-142.91;100.00;56616.03;4992773;28;20195;-66
2022/09/14 03:06:30;;;;;;;10.15;5.50;;;;;;;-142.91;100.00;56616.03;4991879;28;20314;-66
2022/09/14 03:08:57;;;;;;;7.25;5.70;;;;;;;-142.91;100.00;56616.03;4993411;28;20196;-66
2022/09/14 03:11:24;;;;;;;6.20;5.60;;;;;;;-142.91;100.00;56616.03;4993940;28;20219;-66
2022/09/14 03:13:50;;;;;;;6.30;5.63;;;;;;;-142.91;100.00;56616.03;4993001;28;20207;-67
2022/09/14 03:16:19;;;;;;;5.65;4.97;;;;;;;-142.91;100.00;56616.03;4991027;28;20722;-66
2022/09/14 03:18:47;;;;;;;6.47;5.43;;;;;;;-142.91;100.00;56616.03;4990200;28;20266;-66
2022/09/14 03:21:16;;;;;;;5.75;5.35;;;;;;;-142.91;100.00;56616.03;4990443;28;20211;-68
2022/09/14 03:23:45;;;;;;;8.38;6.30;;;;;;;-142.91;100.00;56616.03;4990796;28;20677;-67
2022/09/14 03:26:13;;;;;;;5.30;4.90;;;;;;;-142.91;100.00;56616.03;4989574;28;20301;-67
2022/09/14 03:28:41;;;;;;;7.95;5.90;;;;;;;-142.91;100.00;56616.03;4990607;28;20305;-67
2022/09/14 03:31:10;;;;;;;7.03;6.53;;;;;;;-142.91;100.00;56616.03;4990125;28;20853;-66
2022/09/14 03:33:37;;;;;;;8.85;6.00;;;;;;;-142.91;100.00;56616.03;4990657;28;20740;-66
2022/09/14 03:36:12;;;;;;;5.72;5.32;;;;;;;-142.91;100.00;56616.03;4989098;28;20231;-67
2022/09/14 03:38:39;;;;;;;10.13;5.35;;;;;;;-142.91;100.00;56616.03;4990407;28;20203;-68
2022/09/14 03:41:08;;;;;;;7.93;6.72;;;;;;;-142.91;100.00;56616.03;4991616;28;20210;-67
2022/09/14 03:43:35;;;;;;;6.20;5.78;;;;;;;-142.91;100.00;56616.03;4991388;28;20203;-66
2022/09/14 03:46:05;;;;;;;7.47;6.63;;;;;;;-142.91;100.00;56616.03;4991801;28;20226;-67
2022/09/14 03:48:32;;;;;;;6.50;5.68;;;;;;;-142.91;100.00;56616.03;4990463;28;20217;-66
2022/09/14 03:51:00;;;;;;;9.13;6.07;;;;;;;-142.91;100.00;56616.03;4991799;28;20733;-67
2022/09/14 03:53:28;;;;;;;6.40;5.40;;;;;;;-142.91;100.00;56616.03;4991389;28;20308;-66
2022/09/14 03:55:55;;;;;;;8.23;5.78;;;;;;;-142.91;100.00;56616.03;4991920;28;20281;-66
2022/09/14 03:58:23;;;;;;;7.78;7.03;;;;;;;-142.91;100.00;56616.03;4991052;28;20744;-68
2022/09/14 04:00:50;;;;;;;8.07;6.97;;;;;;;-142.91;100.00;56616.03;4992587;28;20889;-66
2022/09/14 04:03:17;;;;;;;15.75;7.00;;;;;;;-142.91;100.00;56616.03;4990931;28;20207;-66
2022/09/14 04:05:44;;;;;;;11.85;7.10;;;;;;;-142.91;100.00;56616.03;4992658;28;20223;-68
2022/09/14 04:08:12;;;;;;;15.57;11.85;;;;;;;-142.91;100.00;56616.03;4989334;28;20204;-68
2022/09/14 04:10:40;;;;;;;14.43;9.38;;;;;;;-142.91;100.00;56616.03;4989976;28;20276;-68
2022/09/14 04:13:07;;;;;;;9.10;6.65;;;;;;;-142.91;100.00;56616.03;4990335;28;20605;-68
2022/09/14 04:15:34;;;;;;;7.57;6.32;;;;;;;-142.91;100.00;56616.03;4991215;28;20234;-66
2022/09/14 04:18:01;;;;;;;6.60;6.18;;;;;;;-142.91;100.00;56616.03;4990800;28;20212;-65
2022/09/14 04:20:27;;;;;;;7.18;6.47;;;;;;;-142.91;100.00;56616.03;4989183;28;20243;-68
2022/09/14 04:22:54;;;;;;;7.63;6.93;;;;;;;-142.91;100.00;56616.03;4990690;28;20203;-65
2022/09/14 04:25:21;;;;;;;15.50;7.25;;;;;;;-142.91;100.00;56616.03;4991301;28;20210;-65
2022/09/14 04:27:50;;;;;;;19.33;6.80;;;;;;;-142.91;100.00;56616.03;4990425;28;20199;-69
2022/09/14 04:30:17;;;;;;;20.65;7.68;;;;;;;-142.91;100.00;56616.03;4990688;28;21017;-67
2022/09/14 04:32:43;;;;;;;20.55;10.07;;;;;;;-142.91;100.00;56616.03;4991532;28;20273;-67
2022/09/14 04:35:10;;;;;;;16.20;13.32;;;;;;;-142.91;100.00;56616.03;4990759;28;20298;-68
2022/09/14 04:37:37;;;;;;;14.38;8.57;;;;;;;-142.91;100.00;56616.03;4988936;28;20282;-70
2022/09/14 04:40:05;;;;;;;8.38;6.47;;;;;;;-142.91;100.00;56616.03;4991096;28;20210;-69
2022/09/14 04:42:32;;;;;;;11.50;7.45;;;;;;;-142.91;100.00;56616.03;4990628;28;20588;-66
2022/09/14 04:45:00;;;;;;;26.63;12.95;;;;;;;-142.91;100.00;56616.03;4989164;28;20269;-64
2022/09/14 04:47:28;;;;;;;11.52;9.85;;;;;;;-142.91;100.00;56616.03;4989511;28;20266;-70
2022/09/14 04:49:55;;;;;;;11.65;7.90;;;;;;;-142.91;100.00;56616.03;4991070;28;20265;-65
2022/09/14 04:52:23;;;;;;;14.82;7.78;;;;;;;-142.91;100.00;56616.03;4993771;28;20212;-67
2022/09/14 04:54:50;;;;;;;13.80;7.25;;;;;;;-142.91;100.00;56616.03;4994798;28;20256;-65
2022/09/14 04:57:16;;;;;;;13.02;8.23;;;;;;;-142.91;100.00;56616.03;4993601;28;20708;-65
2022/09/14 04:59:43;;;;;;;13.07;7.65;;;;;;;-142.91;100.00;56616.03;4994534;28;20212;-66
2022/09/14 05:02:11;;;;;;;10.02;8.40;;;;;;;-142.91;100.00;56616.03;4995721;28;20212;-66
2022/09/14 05:04:38;;;;;;;11.23;8.60;;;;;;;-142.91;100.00;56616.03;4993952;28;21823;-67
2022/09/14 05:07:05;;;;;;;11.98;7.55;;;;;;;-142.91;100.00;56616.03;4992288;28;20235;-67
2022/09/14 05:09:32;;;;;;;16.00;7.72;;;;;;;-142.91;100.00;56616.03;4994096;28;20726;-66
2022/09/14 05:11:58;;;;;;;12.30;7.70;;;;;;;-142.91;100.00;56616.03;4994536;28;20284;-67
2022/09/14 05:14:25;;;;;;;17.27;7.93;;;;;;;-142.91;100.00;56616.03;4993054;28;20268;-67
2022/09/14 05:16:52;;;;;;;17.83;8.48;;;;;;;-142.91;100.00;56616.03;4991724;28;20199;-67
2022/09/14 05:19:20;;;;;;;24.38;7.80;;;;;;;-142.91;100.00;56616.03;4993110;28;20231;-68
2022/09/14 05:21:47;;;;;;;13.73;8.45;;;;;;;-142.91;100.00;56616.03;4992234;28;20913;-66
2022/09/14 05:24:16;;;;;;;9.88;6.90;;;;;;;-142.91;100.00;56616.03;4995308;28;20223;-67
2022/09/14 05:26:44;;;;;;;17.92;6.80;;;;;;;-142.91;100.00;56616.03;4992769;28;20228;-66
2022/09/14 05:29:12;;;;;;;9.73;6.15;;;;;;;-142.91;100.00;56616.03;4992104;28;20893;-68
2022/09/14 05:31:39;;;;;;;10.48;6.55;;;;;;;-142.91;100.00;56616.03;4992158;28;21318;-66
2022/09/14 05:34:06;;;;;;;11.68;6.75;;;;;;;-142.91;100.00;56616.03;4993117;28;20374;-68
2022/09/14 05:36:36;;;;;;;12.57;6.85;;;;;;;-142.91;100.00;56616.03;4993729;28;20208;-69
2022/09/14 05:39:03;;;;;;;17.65;6.65;;;;;;;-142.91;100.00;56616.03;4996993;28;20245;-69
2022/09/14 05:41:29;;;;;;;10.18;5.78;;;;;;;-142.91;100.00;56616.03;4995799;28;20208;-69
2022/09/14 05:43:57;;;;;;;10.32;6.38;;;;;;;-142.91;100.00;56616.03;4993722;28;20211;-67
2022/09/14 05:46:24;;;;;;;12.43;7.13;;;;;;;-142.91;100.00;56616.03;4993498;28;20790;-68
2022/09/14 05:48:51;;;;;;;18.48;9.73;;;;;;;-142.91;100.00;56616.03;4992977;28;20250;-67
2022/09/14 05:51:20;;;;;;;20.65;13.68;;;;;;;-142.91;100.00;56616.03;4995157;28;20207;-66
2022/09/14 05:53:49;;;;;;;17.33;7.90;;;;;;;-142.91;100.00;56616.03;4991874;28;20262;-67
2022/09/14 05:56:17;;;;;;;8.73;7.50;;;;;;;-142.91;100.00;56616.03;4993769;28;20968;-67
2022/09/14 05:58:44;;;;;;;16.27;10.73;;;;;;;-142.91;100.00;56616.03;4994937;28;20227;-69
2022/09/14 06:01:14;;;;;;;18.77;9.82;;;;;;;-142.91;100.00;56616.03;4994765;28;20234;-67
2022/09/14 06:03:41;;;;;;;20.77;9.48;;;;;;;-142.91;100.00;56616.03;4993992;28;21110;-67
2022/09/14 06:06:10;;;;;;;14.88;8.00;;;;;;;-142.91;100.00;56616.03;4995657;28;22168;-67
2022/09/14 06:08:37;;;;;;;13.18;7.68;;;;;;;-142.91;100.00;56616.03;4997866;28;20274;-67
2022/09/14 06:11:08;;;;;;;8.25;6.10;;;;;;;-142.91;100.00;56616.03;4996962;28;20296;-67
2022/09/14 06:13:35;;;;;;;8.10;5.68;;;;;;;-142.91;100.00;56616.03;4997479;28;20289;-68
2022/09/14 06:16:03;;;;;;;7.45;5.80;;;;;;;-142.91;100.00;56616.03;4994845;28;20236;-69
2022/09/14 06:18:31;;;;;;;10.13;4.85;;;;;;;-142.91;100.00;56616.03;4995734;28;20211;-68
2022/09/14 06:20:58;;;;;;;9.68;7.93;;;;;;;-142.91;100.00;56616.03;4996336;28;20366;-69
2022/09/14 06:23:26;;;;;;;8.23;5.53;;;;;;;-142.91;100.00;56616.03;4993562;28;21528;-68
2022/09/14 06:25:53;;;;;;;5.82;5.03;;;;;;;-142.91;100.00;56616.03;4991430;28;20799;-68
2022/09/14 06:28:22;;;;;;;6.30;4.43;;;;;;;-142.91;100.00;56616.03;4990641;28;20226;-67
2022/09/14 06:30:49;;;;;;;6.10;4.63;;;;;;;-142.91;100.00;56616.03;4992084;28;20227;-67
2022/09/14 06:33:15;;;;;;;5.38;4.95;;;;;;;-142.91;100.00;56616.03;4993008;28;20747;-66
2022/09/14 06:35:45;;;;;;;6.85;4.68;;;;;;;-142.91;100.00;56616.03;4994511;28;20634;-67
2022/09/14 06:38:12;;;;;;;6.47;5.93;;;;;;;-142.91;100.00;56616.03;4992072;28;20210;-67
2022/09/14 06:40:38;;;;;;;8.68;4.30;;;;;;;-142.91;100.00;56616.03;4994971;28;20208;-66
2022/09/14 06:43:05;;;;;;;7.60;5.63;;;;;;;-142.91;100.00;56616.03;4991464;28;20199;-67
2022/09/14 06:45:35;;;;;;;6.40;5.80;;;;;;;-142.91;100.00;56616.03;4993493;28;20563;-66
2022/09/14 06:48:02;;;;;;;12.65;7.13;;;;;;;-142.91;100.00;56616.03;4989954;28;20877;-67
2022/09/14 06:50:29;;;;;;;5.15;4.57;;;;;;;-142.91;100.00;56616.03;4991561;28;21170;-66
2022/09/14 06:52:55;;;;;;;38.85;17.88;;;;;;;-142.91;100.00;56616.03;4990100;28;20340;-68
2022/09/14 06:55:22;;;;;;;11.07;9.43;;;;;;;-142.91;100.00;56616.03;4990122;28;20759;-67
2022/09/14 06:57:49;;;;;;;8.40;5.10;;;;;;;-142.91;100.00;56616.03;4989317;28;20300;-67
2022/09/14 07:00:18;;;;;;;6.68;5.05;;;;;;;-142.91;100.00;56616.03;4992594;28;20207;-67
2022/09/14 07:02:46;;;;;;;5.50;5.20;;;;;;;-142.91;100.00;56616.03;4992038;28;20221;-69
2022/09/14 07:05:14;;;;;;;6.82;4.22;;;;;;;-142.91;100.00;56616.03;4993453;28;20213;-68
2022/09/14 07:07:41;;;;;;;8.50;4.20;;;;;;;-142.91;100.00;56616.03;4990635;28;20259;-67
2022/09/14 07:10:08;;;;;;;5.97;5.43;;;;;;;-142.91;100.00;56616.03;4989073;28;20683;-70
2022/09/14 07:12:35;;;;;;;7.10;4.95;;;;;;;-142.91;100.00;56616.03;4992091;28;20200;-68
2022/09/14 07:15:03;;;;;;;4.07;3.70;;;;;;;-142.91;100.00;56616.03;4992464;28;20294;-66
2022/09/14 07:17:30;;;;;;;8.05;4.18;;;;;;;-142.91;100.00;56616.03;4989753;28;20214;-67
2022/09/14 07:19:58;;;;;;;8.40;4.57;;;;;;;-142.91;100.00;56616.03;4991060;28;20787;-67
2022/09/14 07:22:25;;;;;;;8.35;5.50;;;;;;;-142.91;100.00;56616.03;4992551;28;20215;-67
2022/09/14 07:24:52;;;;;;;8.70;5.47;;;;;;;-142.91;100.00;56616.03;4992591;28;20211;-68
2022/09/14 07:27:18;;;;;;;7.32;4.38;;;;;;;-142.91;100.00;56616.03;4991106;28;20228;-68
2022/09/14 07:29:46;;;;;;;5.72;4.15;;;;;;;-142.91;100.00;56616.03;4992246;28;20790;-68
2022/09/14 07:32:13;;;;;;;5.03;4.53;;;;;;;-142.91;100.00;56616.03;4992982;28;20210;-67
2022/09/14 07:34:39;;;;;;;8.20;4.38;;;;;;;-142.91;100.00;56616.03;4992654;28;21949;-66
2022/09/14 07:37:07;;;;;;;7.95;4.72;;;;;;;-142.91;100.00;56616.03;4990614;28;20617;-67
2022/09/14 07:39:34;;;;;;;5.97;5.32;;;;;;;-142.91;100.00;56616.03;4992523;28;20203;-66
2022/09/14 07:42:01;;;;;;;6.85;5.90;;;;;;;-142.91;100.00;56616.03;4993231;28;20637;-68
2022/09/14 07:44:28;;;;;;;7.50;4.65;;;;;;;-142.91;100.00;56616.03;4993080;28;20211;-67
2022/09/14 07:46:55;;;;;;;5.00;4.60;;;;;;;-142.91;100.00;56616.03;4991012;28;20317;-67
2022/09/14 07:49:22;;;;;;;5.43;4.32;;;;;;;-142.91;100.00;56616.03;4994507;28;20261;-67
2022/09/14 07:51:49;;;;;;;5.57;5.10;;;;;;;-142.91;100.00;56616.03;4995802;28;20203;-66
2022/09/14 07:54:18;;;;;;;9.82;5.40;;;;;;;-142.91;100.00;56616.03;4996373;28;20208;-68
2022/09/14 07:56:45;;;;;;;5.50;4.88;;;;;;;-142.91;100.00;56616.03;4993245;28;20215;-67
2022/09/14 07:59:14;;;;;;;16.08;5.72;;;;;;;-142.91;100.00;56616.03;4995099;28;20608;-68
2022/09/14 08:01:40;;;;;;;8.82;6.82;;;;;;;-142.91;100.00;56616.03;4994748;28;21975;-68
2022/09/14 08:04:08;;;;;;;15.02;6.88;;;;;;;-142.91;100.00;56616.03;4995146;28;20301;-66
2022/09/14 08:06:36;;;;;;;10.07;5.68;;;;;;;-142.91;100.00;56616.03;4991946;28;20255;-67
2022/09/14 08:09:07;;;;;;;10.30;5.90;;;;;;;-142.91;100.00;56616.03;4993148;28;20203;-67
2022/09/14 08:11:35;;;;;;;10.63;5.70;;;;;;;-142.91;100.00;56616.03;4994612;28;20662;-67
2022/09/14 08:14:05;;;;;;;7.93;6.78;;;;;;;-142.91;100.00;56616.03;4992442;28;20222;-66
2022/09/14 08:16:34;;;;;;;14.85;6.10;;;;;;;-142.91;100.00;56616.03;4990671;28;20817;-67
2022/09/14 08:19:02;;;;;;;13.80;6.55;;;;;;;-142.91;100.00;56616.03;4992081;28;20293;-66
2022/09/14 08:21:31;;;;;;;14.50;6.10;;;;;;;-142.91;100.00;56616.03;4995061;28;20199;-68
2022/09/14 08:24:01;;;;;;;14.82;6.20;;;;;;;-142.91;100.00;56616.03;4992994;28;20215;-68
2022/09/14 08:26:28;;;;;;;8.10;5.35;;;;;;;-142.91;100.00;56616.03;4994164;28;21099;-66
2022/09/14 08:28:58;;;;;;;13.45;7.20;;;;;;;-142.91;100.00;56616.03;4996059;28;20223;-67
2022/09/14 08:31:26;;;;;;;8.50;6.15;;;;;;;-142.91;100.00;56616.03;4994866;28;20212;-68
2022/09/14 08:33:55;;;;;;;9.85;7.13;;;;;;;-142.91;100.00;56616.03;4995926;28;20222;-69
2022/09/14 08:36:23;;;;;;;12.60;6.75;;;;;;;-142.91;100.00;56616.03;4993872;28;20212;-65
2022/09/14 08:38:50;;;;;;;10.10;7.63;;;;;;;-142.91;100.00;56616.03;4992466;28;20273;-68
2022/09/14 08:41:27;;;;;;;10.85;6.60;;;;;;;-142.91;100.00;56616.03;4992596;28;20285;-69
2022/09/14 08:43:53;;;;;;;20.05;10.20;;;;;;;-142.91;100.00;56616.03;4994974;28;20203;-67
2022/09/14 08:46:30;;;;;;;12.95;7.53;;;;;;;-142.91;100.00;56616.03;4995098;28;20235;-68
2022/09/14 08:48:58;;;;;;;13.90;7.88;;;;;;;-142.91;100.00;56616.03;4995999;28;20289;-68
2022/09/14 08:51:25;;;;;;;7.78;6.13;;;;;;;-142.91;100.00;56616.03;4994871;28;20207;-68
2022/09/14 08:53:53;;;;;;;8.52;6.78;;;;;;;-142.91;100.00;56616.03;4993977;28;20204;-65
2022/09/14 08:56:24;;;;;;;14.65;6.45;;;;;;;-142.91;100.00;56616.03;4992476;28;20210;-66
2022/09/14 08:59:18;;;;;;;11.65;6.95;;;;;;;-142.91;100.00;56616.03;4993556;28;20210;-66
2022/09/14 09:01:59;;;;;;;9.45;6.28;;;;;;;-142.91;100.00;56616.03;4994777;28;21671;-65
2022/09/14 09:04:39;;;;;;;10.05;6.05;;;;;;;-142.91;100.00;56616.03;4995724;28;20258;-67
2022/09/14 09:07:13;;;;;;;9.40;5.97;;;;;;;-142.91;100.00;56616.03;4994849;28;20277;-67
2022/09/14 09:09:45;;;;;;;12.13;6.47;;;;;;;-142.91;100.00;56616.03;4993367;28;20239;-65
2022/09/14 09:12:16;;;;;;;9.25;8.02;;;;;;;-142.91;100.00;56616.03;4992879;28;20200;-66
2022/09/14 09:14:47;;;;;;;7.65;6.10;;;;;;;-142.91;100.00;56616.03;4992403;28;20218;-66
2022/09/14 09:17:20;;;;;;;13.40;6.03;;;;;;;-142.91;100.00;56616.03;4992721;28;20283;-66
2022/09/14 09:19:57;;;;;;;8.50;5.90;;;;;;;-142.91;100.00;56616.03;4993487;28;20255;-66
2022/09/14 09:22:28;;;;;;;5.93;5.32;;;;;;;-142.91;100.00;56616.03;4996892;28;20203;-66
2022/09/14 09:24:55;;;;;;;8.80;5.47;;;;;;;-142.91;100.00;56616.03;4992754;28;20231;-66
2022/09/14 09:27:24;;;;;;;9.15;5.55;;;;;;;-142.91;100.00;56616.03;4994096;28;20223;-67
2022/09/14 09:29:50;;;;;;;28.05;7.55;;;;;;;-142.91;100.00;56616.03;4996450;28;20774;-66
2022/09/14 09:32:23;;;;;;;13.48;5.07;;;;;;;-142.91;100.00;56616.03;4994704;28;20678;-66
2022/09/14 09:34:50;;;;;;;11.30;6.68;;;;;;;-142.91;100.00;56616.03;4993019;28;20269;-66
2022/09/14 09:37:19;;;;;;;23.02;8.63;;;;;;;-142.91;100.00;56616.03;4996800;28;20227;-67
2022/09/14 09:39:46;;;;;;;8.30;6.47;;;;;;;-142.91;100.00;56616.03;4997489;28;20203;-67
2022/09/14 09:42:19;;;;;;;11.65;6.80;;;;;;;-142.91;100.00;56616.03;4997443;28;20218;-67
2022/09/14 09:44:55;;;;;;;7.72;4.13;;;;;;;-142.91;100.00;56616.03;4996055;28;20195;-69
2022/09/14 09:47:30;;;;;;;6.40;3.67;;;;;;;-142.91;100.00;56616.03;4996708;28;20240;-67
2022/09/14 09:49:59;;;;;;;3.88;3.50;;;;;;;-142.91;100.00;56616.03;4998250;28;20207;-67
2022/09/14 09:52:27;;;;;;;14.85;4.43;;;;;;;-142.91;100.00;56616.03;4995319;28;20207;-66
2022/09/14 09:54:55;;;;;;;15.15;8.23;;;;;;;-142.91;100.00;56616.03;4995654;28;20208;-67
2022/09/14 09:57:27;;;;;;;26.80;14.50;;;;;;;-142.91;100.00;56616.03;4995336;28;20587;-67
2022/09/14 10:00:09;;;;;;;18.13;10.57;;;;;;;-142.91;100.00;56616.03;4993804;28;20200;-66
2022/09/14 10:02:37;;;;;;;15.40;8.77;;;;;;;-142.91;100.00;56616.03;4995121;28;20202;-69
2022/09/14 10:05:07;;;;;;;37.13;19.25;;;;;;;-142.91;100.00;56616.03;4993369;28;21111;-69
2022/09/14 10:07:35;;;;;;;13.93;8.77;;;;;;;-142.91;100.00;56616.03;4991227;28;20262;-70
2022/09/14 10:10:04;;;;;;;6.90;5.10;;;;;;;-142.91;100.00;56616.03;4994201;28;20214;-70
2022/09/14 10:12:32;;;;;;;4.15;3.70;;;;;;;-142.91;100.00;56616.03;4995351;28;20211;-69
2022/09/14 10:15:16;;;;;;;4.28;3.80;;;;;;;-142.91;100.00;56616.03;4992946;28;20212;-69
2022/09/14 10:18:06;;;;;;;10.40;5.32;;;;;;;-142.91;100.00;56616.03;4990156;28;20212;-70
2022/09/14 10:20:33;;;;;;;6.35;4.80;;;;;;;-142.91;100.00;56616.03;4991004;28;20772;-68
2022/09/14 10:23:21;;;;;;;3.10;2.80;;;;;;;-142.91;100.00;56616.03;4991761;28;20674;-69
2022/09/14 10:25:50;;;;;;;11.65;7.22;;;;;;;-142.91;100.00;56616.03;4990936;28;20212;-69
2022/09/14 10:28:23;;;;;;;6.95;5.68;;;;;;;-142.91;100.00;56616.03;4991869;28;20501;-69
2022/09/14 10:30:53;;;;;;;3.95;3.38;;;;;;;-142.91;100.00;56616.03;4991659;28;20214;-69
2022/09/14 10:33:21;;;;;;;7.88;3.88;;;;;;;-142.91;100.00;56616.03;4992891;28;20289;-70
2022/09/14 10:35:54;;;;;;;7.15;4.53;;;;;;;-142.91;100.00;56616.03;4995812;28;22218;-70
2022/09/14 10:38:34;;;;;;;11.70;7.32;;;;;;;-142.91;100.00;56616.03;4995204;28;21237;-71
2022/09/14 10:41:13;;;;;;;10.00;6.88;;;;;;;-142.91;100.00;56616.03;4993376;28;20673;-70
2022/09/14 10:43:59;;;;;;;4.72;4.32;;;;;;;-142.91;100.00;56616.03;4992821;28;20825;-69
2022/09/14 10:46:30;;;;;;;3.40;2.38;;;;;;;-142.91;100.00;56616.03;4993613;28;21324;-68
2022/09/14 10:49:17;;;;;;;6.75;1.95;;;;;;;-142.91;100.00;56616.03;4994065;28;20251;-69
2022/09/14 10:51:55;;;;;;;3.70;1.90;;;;;;;-142.91;100.00;56616.03;4993590;28;20211;-68
2022/09/14 10:54:43;;;;;;;2.83;2.63;;;;;;;-142.91;100.00;56616.03;4993442;28;20297;-69
2022/09/14 10:57:20;;;;;;;5.55;2.92;;;;;;;-142.91;100.00;56616.03;4994908;28;22211;-69
2022/09/14 10:59:54;;;;;;;7.72;5.18;;;;;;;-142.91;100.00;56616.03;4990748;28;20207;-69
2022/09/14 11:02:50;;;;;;;4.85;3.08;;;;;;;-142.91;100.00;56616.03;4992688;28;20214;-66
2022/09/14 11:05:23;;;;;;;4.90;3.20;;;;;;;-142.91;100.00;56616.03;4992988;28;20215;-67
2022/09/14 11:08:07;;;;;;;2.30;2.20;;;;;;;-142.91;100.00;56616.03;4993419;28;20779;-66
2022/09/14 11:10:42;;;;;;;2.50;2.40;;;;;;;-142.91;100.00;56616.03;4994944;28;20327;-67
2022/09/14 11:13:30;;;;;;;3.13;2.25;;;;;;;-142.91;100.00;56616.03;4991890;28;20199;-66
2022/09/14 11:16:09;;;;;;;2.53;2.42;;;;;;;-142.91;100.00;56616.03;4992906;28;20207;-66
2022/09/14 11:18:47;;;;;;;4.97;4.47;;;;;;;-142.91;100.00;56616.03;4991384;28;20734;-66
2022/09/14 11:21:26;;;;;;;7.00;2.67;;;;;;;-142.91;100.00;56616.03;4992835;28;20204;-66